Check out our new BloomSky Weather System.

Active alerts


No alerts


Thunder radar  blitzortung!


Rain radar more information rain snow radar


Visit our other weather sites:

Template documentation
and downloads

And another site



Weather Underground History page Text

Daily Summary for October 2, 2017 Units:  English    Metric   Both
« Previous Day
Next Day »
Daily Weekly Monthly Yearly Custom
  High: Low: Average:
Temperature: 88.5 °F 72.3 °F 79 °F
Dew Point: 78.3 °F 71.1 °F 74.3 °F
Humidity: 98 % 61 % 86 %
Wind Speed: 8.0 mph 0.0 mph 1.4 mph
Wind Gust: 12.0 mph - -
Wind:- - SE
Pressure: 29.96 in 29.88 in -
Precipitation: 0.00 in    
Historical Graphs
 
 
Tabular Data for October 2, 2017
Time Temperature Dew Point Pressure Wind Wind Speed Wind Gust Humidity Rainfall Rate (Hourly)
00:02 76.5 °F 73.0 °F 29.90 in Calm   1.0 mph 89 % 0.00 in
00:07 76.3 °F 73.0 °F 29.89 in Calm   1.0 mph 90 % 0.00 in
00:12 76.3 °F 73.0 °F 29.90 in Calm   1.0 mph 90 % 0.00 in
00:17 76.1 °F 72.9 °F 29.89 in Calm   1.0 mph 90 % 0.00 in
00:22 75.9 °F 72.9 °F 29.90 in Calm   1.0 mph 90 % 0.00 in
00:27 75.9 °F 72.9 °F 29.89 in Calm   1.0 mph 90 % 0.00 in
00:32 75.7 °F 72.7 °F 29.89 in Calm   1.0 mph 90 % 0.00 in
00:38 75.6 °F 72.7 °F 29.90 in Calm   1.0 mph 91 % 0.00 in
00:43 75.2 °F 72.3 °F 29.90 in Calm   1.0 mph 91 % 0.00 in
00:48 75.0 °F 72.1 °F 29.89 in Calm   1.0 mph 91 % 0.00 in
00:53 74.7 °F 72.1 °F 29.89 in Calm     92 % 0.00 in
00:58 74.5 °F 72.0 °F 29.89 in Calm     92 % 0.00 in
01:03 74.3 °F 72.1 °F 29.89 in Calm     93 % 0.00 in
01:08 74.3 °F 72.1 °F 29.89 in Calm     93 % 0.00 in
01:13 74.1 °F 72.0 °F 29.89 in Calm     93 % 0.00 in
01:18 74.1 °F 72.3 °F 29.89 in Calm     94 % 0.00 in
01:23 73.9 °F 72.1 °F 29.89 in Calm     94 % 0.00 in
01:28 73.9 °F 72.1 °F 29.89 in Calm     94 % 0.00 in
01:33 73.8 °F 72.0 °F 29.89 in Calm     94 % 0.00 in
01:38 73.6 °F 71.8 °F 29.89 in Calm     94 % 0.00 in
01:43 73.4 °F 71.6 °F 29.89 in Calm     94 % 0.00 in
01:48 73.2 °F 71.8 °F 29.89 in Calm     95 % 0.00 in
01:53 73.2 °F 71.8 °F 29.89 in Calm     95 % 0.00 in
01:58 73.2 °F 71.8 °F 29.89 in Calm     95 % 0.00 in
02:03 73.0 °F 71.6 °F 29.89 in Calm     95 % 0.00 in
02:08 73.0 °F 71.8 °F 29.89 in Calm     96 % 0.00 in
02:13 73.0 °F 71.8 °F 29.89 in Calm     96 % 0.00 in
02:18 73.0 °F 71.8 °F 29.89 in Calm     96 % 0.00 in
02:23 72.9 °F 71.6 °F 29.89 in Calm     96 % 0.00 in
02:28 72.9 °F 71.6 °F 29.89 in Calm     96 % 0.00 in
02:33 72.9 °F 71.6 °F 29.89 in Calm     96 % 0.00 in
02:38 72.7 °F 71.4 °F 29.89 in Calm     96 % 0.00 in
02:43 72.7 °F 71.4 °F 29.89 in Calm     96 % 0.00 in
02:48 72.3 °F 71.1 °F 29.89 in Calm     96 % 0.00 in
02:53 72.5 °F 71.2 °F 29.89 in Calm     96 % 0.00 in
02:58 72.3 °F 71.4 °F 29.89 in Calm     97 % 0.00 in
03:03 72.3 °F 71.4 °F 29.89 in Calm     97 % 0.00 in
03:08 72.3 °F 71.4 °F 29.89 in Calm     97 % 0.00 in
03:13 72.3 °F 71.4 °F 29.89 in Calm     97 % 0.00 in
03:18 72.5 °F 71.6 °F 29.89 in Calm     97 % 0.00 in
03:23 72.3 °F 71.4 °F 29.89 in Calm     97 % 0.00 in
03:28 72.3 °F 71.4 °F 29.89 in Calm     97 % 0.00 in
03:33 72.5 °F 71.6 °F 29.89 in Calm     97 % 0.00 in
03:38 72.7 °F 71.8 °F 29.88 in Calm   1.0 mph 97 % 0.00 in
03:43 72.7 °F 71.8 °F 29.88 in Calm   1.0 mph 97 % 0.00 in
03:48 72.5 °F 71.6 °F 29.88 in Calm   1.0 mph 97 % 0.00 in
03:53 72.7 °F 72.1 °F 29.88 in Calm   1.0 mph 98 % 0.00 in
03:58 72.7 °F 72.1 °F 29.88 in Calm   1.0 mph 98 % 0.00 in
04:03 72.7 °F 72.1 °F 29.88 in Calm   1.0 mph 98 % 0.00 in
04:08 72.9 °F 72.3 °F 29.88 in Calm     98 % 0.00 in
04:13 72.9 °F 72.3 °F 29.89 in Calm     98 % 0.00 in
04:18 73.0 °F 72.5 °F 29.89 in Calm   1.0 mph 98 % 0.00 in
04:23 73.2 °F 72.7 °F 29.88 in Calm   2.0 mph 98 % 0.00 in
04:28 73.6 °F 73.0 °F 29.89 in Calm   2.0 mph 98 % 0.00 in
04:33 73.8 °F 73.2 °F 29.88 in Calm   2.0 mph 98 % 0.00 in
04:38 73.8 °F 73.2 °F 29.88 in Calm   2.0 mph 98 % 0.00 in
04:43 73.9 °F 73.4 °F 29.88 in Calm   2.0 mph 98 % 0.00 in
04:49 73.9 °F 73.4 °F 29.89 in Calm   2.0 mph 98 % 0.00 in
04:54 73.9 °F 73.4 °F 29.89 in Calm   2.0 mph 98 % 0.00 in
04:59 73.9 °F 73.4 °F 29.89 in Calm   2.0 mph 98 % 0.00 in
05:04 73.9 °F 73.0 °F 29.88 in Calm   2.0 mph 97 % 0.00 in
05:09 73.8 °F 72.9 °F 29.89 in Calm   2.0 mph 97 % 0.00 in
05:14 73.8 °F 72.9 °F 29.89 in Calm   2.0 mph 97 % 0.00 in
05:19 73.8 °F 72.9 °F 29.88 in NNE 1.0 mph 2.0 mph 97 % 0.00 in
05:24 73.8 °F 72.9 °F 29.89 in Calm   4.0 mph 97 % 0.00 in
05:29 73.8 °F 72.9 °F 29.89 in Calm   4.0 mph 97 % 0.00 in
05:34 73.6 °F 72.7 °F 29.89 in Calm   4.0 mph 97 % 0.00 in
05:39 73.6 °F 72.7 °F 29.89 in Calm   1.0 mph 97 % 0.00 in
05:44 73.6 °F 73.0 °F 29.89 in Calm   2.0 mph 98 % 0.00 in
05:49 73.4 °F 72.9 °F 29.89 in Calm   3.0 mph 98 % 0.00 in
05:54 73.4 °F 72.9 °F 29.90 in Calm   3.0 mph 98 % 0.00 in
05:59 73.4 °F 72.9 °F 29.90 in Calm   3.0 mph 98 % 0.00 in
06:04 73.2 °F 72.7 °F 29.90 in Calm   2.0 mph 98 % 0.00 in
06:09 73.2 °F 72.7 °F 29.90 in Calm   2.0 mph 98 % 0.00 in
06:14 73.2 °F 72.7 °F 29.90 in Calm   1.0 mph 98 % 0.00 in
06:19 73.2 °F 72.7 °F 29.90 in Calm   1.0 mph 98 % 0.00 in
06:24 73.2 °F 72.7 °F 29.90 in Calm   1.0 mph 98 % 0.00 in
06:29 73.2 °F 72.7 °F 29.90 in Calm   1.0 mph 98 % 0.00 in
06:34 73.2 °F 72.7 °F 29.90 in Calm   2.0 mph 98 % 0.00 in
06:39 73.2 °F 72.7 °F 29.90 in Calm   2.0 mph 98 % 0.00 in
06:44 73.2 °F 72.7 °F 29.90 in Calm   2.0 mph 98 % 0.00 in
06:49 73.2 °F 72.7 °F 29.90 in Calm   2.0 mph 98 % 0.00 in
06:54 73.0 °F 72.5 °F 29.90 in Calm   1.0 mph 98 % 0.00 in
06:59 73.0 °F 72.5 °F 29.91 in Calm   1.0 mph 98 % 0.00 in
07:04 73.0 °F 72.5 °F 29.91 in Calm   1.0 mph 98 % 0.00 in
07:09 73.0 °F 72.5 °F 29.91 in ENE 1.0 mph 1.0 mph 98 % 0.00 in
07:14 73.0 °F 72.5 °F 29.91 in Calm   1.0 mph 98 % 0.00 in
07:19 73.2 °F 72.7 °F 29.91 in Calm   1.0 mph 98 % 0.00 in
07:24 73.2 °F 72.7 °F 29.91 in Calm   1.0 mph 98 % 0.00 in
07:29 73.2 °F 72.7 °F 29.91 in Calm   2.0 mph 98 % 0.00 in
07:34 73.4 °F 72.9 °F 29.91 in Calm   4.0 mph 98 % 0.00 in
07:39 73.4 °F 72.9 °F 29.91 in Calm   4.0 mph 98 % 0.00 in
07:44 73.6 °F 73.0 °F 29.92 in Calm   4.0 mph 98 % 0.00 in
07:49 73.6 °F 73.0 °F 29.92 in East 1.0 mph 3.0 mph 98 % 0.00 in
07:54 73.8 °F 73.2 °F 29.92 in East 1.0 mph 4.0 mph 98 % 0.00 in
08:04 74.1 °F 73.6 °F 29.92 in Calm   4.0 mph 98 % 0.00 in
08:09 74.5 °F 73.9 °F 29.92 in ESE 3.0 mph 3.0 mph 98 % 0.00 in
08:14 74.8 °F 74.3 °F 29.93 in East 1.0 mph 5.0 mph 98 % 0.00 in
08:19 75.4 °F 74.8 °F 29.93 in SSW 1.0 mph 5.0 mph 98 % 0.00 in
08:24 75.6 °F 74.7 °F 29.93 in Calm   5.0 mph 97 % 0.00 in
08:29 75.9 °F 74.7 °F 29.93 in Calm   6.0 mph 96 % 0.00 in
08:34 76.5 °F 74.8 °F 29.93 in ESE 2.0 mph 6.0 mph 95 % 0.00 in
08:39 76.6 °F 74.8 °F 29.94 in Calm   6.0 mph 94 % 0.00 in
08:44 76.8 °F 74.7 °F 29.94 in ESE 2.0 mph 5.0 mph 93 % 0.00 in
08:49 77.4 °F 75.2 °F 29.94 in East 3.0 mph 5.0 mph 93 % 0.00 in
08:54 77.9 °F 75.4 °F 29.94 in South 1.0 mph 5.0 mph 92 % 0.00 in
09:04 78.6 °F 75.7 °F 29.94 in East 2.0 mph 7.0 mph 91 % 0.00 in
09:09 79.0 °F 75.4 °F 29.94 in East 4.0 mph 7.0 mph 89 % 0.00 in
09:14 79.2 °F 75.6 °F 29.94 in East 1.0 mph 7.0 mph 89 % 0.00 in
09:19 79.7 °F 75.7 °F 29.94 in SE 2.0 mph 7.0 mph 88 % 0.00 in
09:24 80.1 °F 75.9 °F 29.94 in ESE 6.0 mph 7.0 mph 87 % 0.00 in
09:29 79.9 °F 75.7 °F 29.94 in SSE 2.0 mph 7.0 mph 87 % 0.00 in
09:34 79.7 °F 75.6 °F 29.94 in ESE 5.0 mph 7.0 mph 87 % 0.00 in
09:39 79.2 °F 75.0 °F 29.95 in South 3.0 mph 7.0 mph 87 % 0.00 in
09:44 78.6 °F 74.8 °F 29.94 in SE 2.0 mph 6.0 mph 88 % 0.00 in
09:49 78.4 °F 74.8 °F 29.94 in SE 1.0 mph 6.0 mph 89 % 0.00 in
09:54 78.6 °F 75.0 °F 29.95 in East 2.0 mph 5.0 mph 89 % 0.00 in
10:00 78.8 °F 75.2 °F 29.95 in ESE 2.0 mph 6.0 mph 89 % 0.00 in
10:05 79.0 °F 75.2 °F 29.95 in ESE 2.0 mph 6.0 mph 88 % 0.00 in
10:10 79.2 °F 75.4 °F 29.95 in SE 2.0 mph 6.0 mph 88 % 0.00 in
10:15 79.5 °F 75.6 °F 29.96 in Calm   6.0 mph 88 % 0.00 in
10:20 80.8 °F 76.5 °F 29.96 in ENE 5.0 mph 6.0 mph 87 % 0.00 in
10:25 81.7 °F 76.3 °F 29.96 in SE 3.0 mph 7.0 mph 84 % 0.00 in
10:30 82.0 °F 76.6 °F 29.95 in SE 1.0 mph 7.0 mph 84 % 0.00 in
10:35 82.2 °F 76.1 °F 29.95 in ENE 2.0 mph 7.0 mph 82 % 0.00 in
10:40 82.0 °F 75.9 °F 29.96 in East 1.0 mph 5.0 mph 82 % 0.00 in
10:45 81.7 °F 75.2 °F 29.96 in SE 3.0 mph 6.0 mph 81 % 0.00 in
10:50 81.5 °F 75.4 °F 29.96 in East 1.0 mph 6.0 mph 82 % 0.00 in
10:55 81.1 °F 75.6 °F 29.96 in East 4.0 mph 7.0 mph 83 % 0.00 in
11:00 81.1 °F 75.6 °F 29.96 in NE 3.0 mph 7.0 mph 83 % 0.00 in
11:05 81.1 °F 75.6 °F 29.95 in WSW 1.0 mph 7.0 mph 83 % 0.00 in
11:07 81.1 °F 75.2 °F 29.95 in ENE 2.0 mph 7.0 mph 82 % 0.00 in
11:12 81.0 °F 74.7 °F 29.96 in East 2.0 mph 5.0 mph 81 % 0.00 in
11:17 81.0 °F 75.4 °F 29.96 in Calm   4.0 mph 83 % 0.00 in
11:22 81.0 °F 75.4 °F 29.96 in NE 2.0 mph 4.0 mph 83 % 0.00 in
11:27 80.8 °F 75.2 °F 29.96 in Calm   5.0 mph 83 % 0.00 in
11:33 80.6 °F 75.4 °F 29.96 in NE 4.0 mph 5.0 mph 84 % 0.00 in
11:38 80.8 °F 75.6 °F 29.96 in NNW 1.0 mph 5.0 mph 84 % 0.00 in
11:43 81.1 °F 75.9 °F 29.96 in WNW 2.0 mph 6.0 mph 84 % 0.00 in
11:48 81.1 °F 75.6 °F 29.96 in South 1.0 mph 6.0 mph 83 % 0.00 in
11:53 81.1 °F 75.6 °F 29.96 in Calm   6.0 mph 83 % 0.00 in
11:58 81.3 °F 75.7 °F 29.96 in SSE 1.0 mph 5.0 mph 83 % 0.00 in
12:03 81.1 °F 75.2 °F 29.96 in NE 1.0 mph 4.0 mph 82 % 0.00 in
12:08 81.0 °F 75.4 °F 29.95 in East 2.0 mph 5.0 mph 83 % 0.00 in
12:13 81.0 °F 75.0 °F 29.95 in SE 3.0 mph 5.0 mph 82 % 0.00 in
12:18 80.8 °F 75.2 °F 29.95 in SE 2.0 mph 7.0 mph 83 % 0.00 in
12:23 80.8 °F 75.2 °F 29.95 in ENE 1.0 mph 7.0 mph 83 % 0.00 in
12:28 81.0 °F 75.0 °F 29.95 in Calm   7.0 mph 82 % 0.00 in
12:33 81.1 °F 75.2 °F 29.95 in Calm   6.0 mph 82 % 0.00 in
12:38 81.5 °F 75.4 °F 29.95 in SE 2.0 mph 5.0 mph 82 % 0.00 in
12:43 82.0 °F 75.9 °F 29.95 in SSE 1.0 mph 5.0 mph 82 % 0.00 in
12:48 82.4 °F 75.6 °F 29.94 in East 1.0 mph 5.0 mph 80 % 0.00 in
12:53 82.6 °F 75.7 °F 29.94 in SE 1.0 mph 5.0 mph 80 % 0.00 in
12:58 82.4 °F 75.9 °F 29.94 in East 1.0 mph 6.0 mph 81 % 0.00 in
13:03 82.4 °F 75.6 °F 29.94 in East 1.0 mph 6.0 mph 80 % 0.00 in
13:08 82.6 °F 75.7 °F 29.94 in Calm   6.0 mph 80 % 0.00 in
13:13 82.9 °F 76.1 °F 29.94 in East 2.0 mph 6.0 mph 80 % 0.00 in
13:18 83.5 °F 76.3 °F 29.94 in East 2.0 mph 5.0 mph 79 % 0.00 in
13:23 83.7 °F 76.5 °F 29.93 in NNE 1.0 mph 5.0 mph 79 % 0.00 in
13:28 84.0 °F 76.5 °F 29.93 in ENE 2.0 mph 5.0 mph 78 % 0.00 in
13:33 83.7 °F 76.1 °F 29.93 in SSE 3.0 mph 5.0 mph 78 % 0.00 in
13:38 83.7 °F 76.5 °F 29.93 in ESE 5.0 mph 5.0 mph 79 % 0.00 in
13:43 83.7 °F 76.1 °F 29.92 in SSE 3.0 mph 6.0 mph 78 % 0.00 in
13:48 83.7 °F 76.1 °F 29.92 in ENE 1.0 mph 6.0 mph 78 % 0.00 in
13:53 83.8 °F 76.3 °F 29.92 in ESE 3.0 mph 6.0 mph 78 % 0.00 in
13:58 83.8 °F 76.3 °F 29.92 in SE 1.0 mph 5.0 mph 78 % 0.00 in
14:03 83.7 °F 75.7 °F 29.92 in East 1.0 mph 4.0 mph 77 % 0.00 in
14:08 83.5 °F 75.9 °F 29.91 in Calm   4.0 mph 78 % 0.00 in
14:13 83.7 °F 76.5 °F 29.91 in SSE 2.0 mph 4.0 mph 79 % 0.00 in
14:18 83.7 °F 76.1 °F 29.91 in ESE 1.0 mph 3.0 mph 78 % 0.00 in
14:23 84.0 °F 76.8 °F 29.91 in Calm   3.0 mph 79 % 0.00 in
14:28 84.6 °F 77.0 °F 29.90 in WNW 1.0 mph 3.0 mph 78 % 0.00 in
14:33 85.1 °F 76.6 °F 29.90 in ESE 2.0 mph 3.0 mph 76 % 0.00 in
14:38 85.6 °F 76.8 °F 29.90 in Calm   3.0 mph 75 % 0.00 in
14:43 86.7 °F 77.9 °F 29.89 in SSE 1.0 mph 3.0 mph 75 % 0.00 in
14:48 88.0 °F 78.3 °F 29.89 in ENE 6.0 mph 6.0 mph 73 % 0.00 in
14:53 87.6 °F 76.1 °F 29.89 in ESE 2.0 mph 6.0 mph 69 % 0.00 in
14:59 87.4 °F 76.5 °F 29.89 in NE 1.0 mph 6.0 mph 70 % 0.00 in
15:04 87.4 °F 77.4 °F 29.88 in Calm   6.0 mph 72 % 0.00 in
15:09 88.0 °F 76.5 °F 29.88 in ENE 4.0 mph 4.0 mph 69 % 0.00 in
15:14 87.6 °F 76.6 °F 29.88 in NNW 2.0 mph 5.0 mph 70 % 0.00 in
15:19 87.1 °F 76.5 °F 29.88 in NNW 2.0 mph 5.0 mph 71 % 0.00 in
15:24 86.5 °F 75.6 °F 29.88 in East 2.0 mph 6.0 mph 70 % 0.00 in
15:29 86.2 °F 75.2 °F 29.88 in ENE 1.0 mph 6.0 mph 70 % 0.00 in
15:34 86.2 °F 75.7 °F 29.88 in SE 1.0 mph 6.0 mph 71 % 0.00 in
15:39 86.4 °F 75.9 °F 29.88 in NNW 1.0 mph 6.0 mph 71 % 0.00 in
15:44 87.3 °F 77.5 °F 29.88 in WNW 1.0 mph 4.0 mph 73 % 0.00 in
15:49 87.4 °F 75.6 °F 29.88 in ENE 5.0 mph 5.0 mph 68 % 0.00 in
15:54 88.0 °F 76.1 °F 29.88 in NW 3.0 mph 8.0 mph 68 % 0.00 in
15:59 88.2 °F 75.7 °F 29.88 in NNW 5.0 mph 9.0 mph 67 % 0.00 in
16:04 87.8 °F 75.0 °F 29.88 in NNW 3.0 mph 9.0 mph 66 % 0.00 in
16:09 87.6 °F 74.3 °F 29.88 in NNE 2.0 mph 9.0 mph 65 % 0.00 in
16:14 87.4 °F 74.7 °F 29.88 in NW 2.0 mph 8.0 mph 66 % 0.00 in
16:19 87.4 °F 74.3 °F 29.88 in East 1.0 mph 7.0 mph 65 % 0.00 in
16:24 87.3 °F 74.1 °F 29.88 in East 1.0 mph 5.0 mph 65 % 0.00 in
16:29 87.4 °F 74.3 °F 29.88 in ENE 5.0 mph 5.0 mph 65 % 0.00 in
16:34 87.6 °F 73.4 °F 29.88 in East 3.0 mph 5.0 mph 63 % 0.00 in
16:39 87.6 °F 73.4 °F 29.88 in Calm   7.0 mph 63 % 0.00 in
16:44 88.0 °F 73.8 °F 29.88 in NW 2.0 mph 7.0 mph 63 % 0.00 in
16:49 88.3 °F 73.6 °F 29.88 in ENE 2.0 mph 7.0 mph 62 % 0.00 in
16:54 88.5 °F 73.8 °F 29.88 in WNW 2.0 mph 6.0 mph 62 % 0.00 in
16:59 88.5 °F 73.4 °F 29.88 in NE 6.0 mph 7.0 mph 61 % 0.00 in
17:04 88.2 °F 73.0 °F 29.88 in ESE 2.0 mph 7.0 mph 61 % 0.00 in
17:09 88.0 °F 73.4 °F 29.88 in ENE 6.0 mph 7.0 mph 62 % 0.00 in
17:14 88.0 °F 73.4 °F 29.88 in ESE 6.0 mph 7.0 mph 62 % 0.00 in
17:19 88.0 °F 73.4 °F 29.88 in ENE 2.0 mph 7.0 mph 62 % 0.00 in
17:24 88.0 °F 73.4 °F 29.88 in East 4.0 mph 9.0 mph 62 % 0.00 in
17:29 87.6 °F 73.0 °F 29.88 in Calm   9.0 mph 62 % 0.00 in
17:34 88.0 °F 73.8 °F 29.88 in ENE 3.0 mph 9.0 mph 63 % 0.00 in
17:39 88.0 °F 74.7 °F 29.88 in SSE 5.0 mph 9.0 mph 65 % 0.00 in
17:44 87.6 °F 75.4 °F 29.88 in East 3.0 mph 8.0 mph 67 % 0.00 in
17:49 86.7 °F 75.4 °F 29.88 in ENE 5.0 mph 9.0 mph 69 % 0.00 in
17:54 86.2 °F 74.8 °F 29.89 in East 6.0 mph 9.0 mph 69 % 0.00 in
17:59 85.6 °F 74.7 °F 29.89 in SE 1.0 mph 11.0 mph 70 % 0.00 in
18:04 85.5 °F 75.0 °F 29.89 in East 1.0 mph 11.0 mph 71 % 0.00 in
18:09 85.1 °F 75.0 °F 29.89 in East 3.0 mph 11.0 mph 72 % 0.00 in
18:14 84.7 °F 75.2 °F 29.89 in ESE 2.0 mph 9.0 mph 73 % 0.00 in
18:19 84.4 °F 75.2 °F 29.89 in NNW 5.0 mph 9.0 mph 74 % 0.00 in
18:24 84.0 °F 74.8 °F 29.89 in ENE 2.0 mph 9.0 mph 74 % 0.00 in
18:29 83.7 °F 74.8 °F 29.90 in WNW 1.0 mph 11.0 mph 75 % 0.00 in
18:34 83.3 °F 75.0 °F 29.90 in Calm   11.0 mph 76 % 0.00 in
18:39 83.1 °F 74.8 °F 29.89 in ESE 1.0 mph 11.0 mph 76 % 0.00 in
18:44 82.9 °F 74.7 °F 29.90 in ENE 3.0 mph 8.0 mph 76 % 0.00 in
18:49 82.8 °F 74.5 °F 29.90 in North 2.0 mph 10.0 mph 76 % 0.00 in
18:54 82.6 °F 74.7 °F 29.90 in ENE 4.0 mph 10.0 mph 77 % 0.00 in
18:59 82.4 °F 74.8 °F 29.90 in ENE 2.0 mph 10.0 mph 78 % 0.00 in
19:04 82.2 °F 74.7 °F 29.90 in NE 2.0 mph 10.0 mph 78 % 0.00 in
19:09 82.0 °F 74.8 °F 29.90 in NNE 7.0 mph 10.0 mph 79 % 0.00 in
19:14 81.9 °F 74.7 °F 29.90 in ENE 3.0 mph 10.0 mph 79 % 0.00 in
19:19 81.7 °F 74.5 °F 29.90 in ESE 3.0 mph 10.0 mph 79 % 0.00 in
19:24 81.7 °F 74.5 °F 29.90 in NNE 8.0 mph 9.0 mph 79 % 0.00 in
19:29 81.3 °F 74.1 °F 29.90 in West 1.0 mph 9.0 mph 79 % 0.00 in
19:34 81.1 °F 74.3 °F 29.90 in Calm   9.0 mph 80 % 0.00 in
19:39 81.0 °F 74.1 °F 29.90 in NE 1.0 mph 9.0 mph 80 % 0.00 in
19:45 80.8 °F 74.5 °F 29.90 in NNE 2.0 mph 9.0 mph 81 % 0.00 in
19:50 80.6 °F 74.7 °F 29.90 in Calm   9.0 mph 82 % 0.00 in
19:55 80.4 °F 74.5 °F 29.90 in Calm   10.0 mph 82 % 0.00 in
20:00 80.4 °F 74.5 °F 29.91 in ESE 2.0 mph 10.0 mph 82 % 0.00 in
20:05 80.2 °F 74.7 °F 29.91 in NNW 6.0 mph 7.0 mph 83 % 0.00 in
20:10 80.1 °F 74.5 °F 29.91 in West 3.0 mph 8.0 mph 83 % 0.00 in
20:15 79.9 °F 74.3 °F 29.91 in SSE 2.0 mph 8.0 mph 83 % 0.00 in
20:20 79.7 °F 74.5 °F 29.91 in NE 2.0 mph 10.0 mph 84 % 0.00 in
20:25 79.5 °F 74.3 °F 29.91 in NNW 2.0 mph 10.0 mph 84 % 0.00 in
20:30 79.3 °F 74.5 °F 29.92 in ENE 2.0 mph 10.0 mph 85 % 0.00 in
20:35 79.2 °F 74.7 °F 29.92 in East 5.0 mph 10.0 mph 86 % 0.00 in
20:40 79.2 °F 74.7 °F 29.92 in Calm   11.0 mph 86 % 0.00 in
20:45 79.0 °F 74.8 °F 29.93 in NE 5.0 mph 11.0 mph 87 % 0.00 in
20:50 79.0 °F 74.8 °F 29.93 in NE 1.0 mph 11.0 mph 87 % 0.00 in
20:55 78.8 °F 74.7 °F 29.93 in ESE 6.0 mph 12.0 mph 87 % 0.00 in
21:00 78.6 °F 74.8 °F 29.93 in ESE 1.0 mph 12.0 mph 88 % 0.00 in
21:05 78.4 °F 74.7 °F 29.93 in Calm   12.0 mph 88 % 0.00 in
21:10 78.3 °F 74.5 °F 29.93 in NE 2.0 mph 12.0 mph 88 % 0.00 in
21:15 78.1 °F 74.5 °F 29.93 in East 3.0 mph 12.0 mph 89 % 0.00 in
21:25 77.7 °F 74.3 °F 29.93 in NW 2.0 mph 11.0 mph 89 % 0.00 in
21:30 77.7 °F 74.5 °F 29.93 in ENE 2.0 mph 8.0 mph 90 % 0.00 in
21:35 77.5 °F 74.3 °F 29.93 in NW 1.0 mph 8.0 mph 90 % 0.00 in
21:40 77.5 °F 74.7 °F 29.93 in NNW 2.0 mph 8.0 mph 91 % 0.00 in
21:45 77.4 °F 74.5 °F 29.93 in NE 3.0 mph 8.0 mph 91 % 0.00 in
21:50 77.2 °F 74.7 °F 29.93 in NW 1.0 mph 9.0 mph 92 % 0.00 in
21:55 77.0 °F 74.5 °F 29.93 in NNW 3.0 mph 9.0 mph 92 % 0.00 in
22:00 76.8 °F 74.7 °F 29.94 in NE 2.0 mph 9.0 mph 93 % 0.00 in
22:05 76.8 °F 74.7 °F 29.94 in Calm   8.0 mph 93 % 0.00 in
22:10 76.8 °F 74.7 °F 29.94 in NNW 2.0 mph 8.0 mph 93 % 0.00 in
22:16 77.0 °F 74.8 °F 29.94 in NE 1.0 mph 9.0 mph 93 % 0.00 in
22:21 77.0 °F 74.8 °F 29.94 in East 4.0 mph 9.0 mph 93 % 0.00 in
22:22 77.0 °F 74.8 °F 29.94 in Calm   9.0 mph 93 % 0.00 in
22:24 77.0 °F 74.8 °F 29.94 in NNW 6.0 mph 9.0 mph 93 % 0.00 in
22:26 77.0 °F 74.8 °F 29.94 in NW 4.0 mph 9.0 mph 93 % 0.00 in
22:27 77.0 °F 74.8 °F 29.94 in NW 1.0 mph 9.0 mph 93 % 0.00 in
22:32 76.8 °F 74.7 °F 29.94 in NNE 1.0 mph 9.0 mph 93 % 0.00 in
22:37 77.0 °F 74.8 °F 29.94 in North 2.0 mph 8.0 mph 93 % 0.00 in
22:42 77.0 °F 74.8 °F 29.94 in SW 2.0 mph 12.0 mph 93 % 0.00 in
22:47 77.2 °F 75.0 °F 29.94 in ENE 2.0 mph 12.0 mph 93 % 0.00 in
22:52 77.2 °F 75.0 °F 29.94 in Calm   12.0 mph 93 % 0.00 in
22:57 77.2 °F 75.0 °F 29.94 in ENE 2.0 mph 6.0 mph 93 % 0.00 in
23:02 77.4 °F 75.2 °F 29.94 in NE 2.0 mph 6.0 mph 93 % 0.00 in
23:07 77.5 °F 75.4 °F 29.94 in SE 1.0 mph 6.0 mph 93 % 0.00 in
23:12 77.5 °F 75.7 °F 29.94 in NE 3.0 mph 6.0 mph 94 % 0.00 in
23:17 77.5 °F 75.7 °F 29.94 in ESE 2.0 mph 6.0 mph 94 % 0.00 in
23:22 77.7 °F 75.9 °F 29.94 in ENE 3.0 mph 7.0 mph 94 % 0.00 in
23:27 77.9 °F 76.1 °F 29.94 in ENE 3.0 mph 12.0 mph 94 % 0.00 in
23:32 78.1 °F 76.3 °F 29.94 in ESE 1.0 mph 12.0 mph 94 % 0.00 in
23:37 78.1 °F 75.9 °F 29.94 in Calm   12.0 mph 93 % 0.00 in
23:42 78.1 °F 75.9 °F 29.94 in ESE 2.0 mph 10.0 mph 93 % 0.00 in
23:47 78.3 °F 76.1 °F 29.94 in ENE 2.0 mph 9.0 mph 93 % 0.00 in
23:52 78.4 °F 76.3 °F 29.94 in SSE 5.0 mph 10.0 mph 93 % 0.00 in
23:57 78.6 °F 76.1 °F 29.94 in SE 4.0 mph 10.0 mph 92 % 0.00 in
Spring, Texas: Villages of Bridgestone
Compliments of Weather Underground - 2.75 mb

Script developed by  Jim McMurry - jmcmurry@mwt.net Adapted for the template by  Wim van der Kuil - Leuven-Template.eu

You find our weather info also at:

UK Metoffice

WeatherCloud

Weather Underground

Mid-South Weather Network

AWEKAS

Citizen Weather Observer Program (CWOP)

HAMweather, WeatherForYou, PWS Weather

Equipment we use:

Weather-station
Davis Vantage Vue

Weather-program
Meteohub

Weather-server
Debian 7.9 x86 (Guest)

Provider
DreamHost

Davis Vantage Vue

Meteohub

Debian 7.9 x86 (Guest)

DreamHost